createdAt,value
2024-02-22T00:00:45.905Z,122.71
2024-02-22T00:01:45.981Z,122.76
2024-02-22T00:02:45.994Z,122.24
2024-02-22T00:03:46.048Z,123.76
2024-02-22T00:04:46.185Z,122.05
2024-02-22T00:05:46.196Z,121.62
2024-02-22T00:06:46.274Z,121.81
2024-02-22T00:07:46.408Z,120.55
2024-02-22T00:08:46.374Z,124.21
2024-02-22T00:09:46.406Z,122.41
2024-02-22T00:10:46.520Z,121.79
2024-02-22T00:11:46.559Z,119.79
2024-02-22T00:12:46.544Z,120.93
2024-02-22T00:13:46.617Z,121.03
2024-02-22T00:14:46.709Z,120.30
2024-02-22T00:15:46.716Z,121.00
2024-02-22T00:16:46.918Z,121.04
2024-02-22T00:17:46.866Z,120.93
2024-02-22T00:18:46.957Z,119.41
2024-02-22T00:19:46.994Z,120.04
2024-02-22T00:20:46.984Z,121.82
2024-02-22T00:21:47.032Z,121.27
2024-02-22T00:22:47.121Z,119.94
2024-02-22T00:23:47.131Z,120.41
2024-02-22T00:24:47.227Z,120.83
2024-02-22T00:25:47.254Z,120.08
2024-02-22T00:26:47.297Z,120.08
2024-02-22T00:27:47.360Z,121.02
2024-02-22T00:28:47.538Z,121.41
2024-02-22T00:29:47.507Z,116.77
2024-02-22T00:30:47.598Z,119.42
2024-02-22T00:31:47.753Z,121.34
2024-02-22T00:32:47.825Z,119.64
2024-02-22T00:33:47.852Z,121.57
2024-02-22T00:34:47.877Z,120.40
2024-02-22T00:35:47.908Z,119.77
2024-02-22T00:36:47.961Z,121.84
2024-02-22T00:37:48.061Z,121.85
2024-02-22T00:38:48.095Z,121.00
2024-02-22T00:39:48.151Z,120.17
2024-02-22T00:40:48.199Z,120.49
2024-02-22T00:41:48.209Z,120.39
2024-02-22T00:42:48.286Z,120.32
2024-02-22T00:43:48.362Z,119.79
2024-02-22T00:44:48.494Z,118.28
2024-02-22T00:45:48.450Z,120.86
2024-02-22T00:46:49.637Z,121.67
2024-02-22T00:47:48.652Z,121.88
2024-02-22T00:48:48.633Z,121.41
2024-02-22T00:49:48.783Z,119.62
2024-02-22T00:50:48.838Z,120.49
2024-02-22T00:51:48.749Z,120.69
2024-02-22T00:52:48.930Z,119.62
2024-02-22T00:53:48.888Z,121.48
2024-02-22T00:54:48.944Z,119.22
2024-02-22T00:55:49.006Z,119.92
2024-02-22T00:56:49.008Z,119.64
2024-02-22T00:57:49.063Z,121.81
2024-02-22T00:58:49.170Z,120.61
2024-02-22T00:59:49.142Z,121.68
2024-02-22T01:00:49.301Z,120.28
2024-02-22T01:01:49.313Z,121.73
2024-02-22T01:02:49.270Z,120.23
2024-02-22T01:03:49.347Z,119.86
2024-02-22T01:04:49.473Z,120.04
2024-02-22T01:05:49.547Z,121.31
2024-02-22T01:06:49.497Z,120.33
2024-02-22T01:07:49.641Z,120.60
2024-02-22T01:08:49.625Z,120.33
2024-02-22T01:09:49.700Z,119.76
2024-02-22T01:10:50.637Z,120.22
2024-02-22T01:11:49.844Z,120.63
2024-02-22T01:12:49.854Z,121.25
2024-02-22T01:13:49.911Z,121.62
2024-02-22T01:14:49.961Z,120.94
2024-02-22T01:15:50.012Z,119.22
2024-02-22T01:16:50.118Z,121.33
2024-02-22T01:17:50.151Z,120.66
2024-02-22T01:18:50.218Z,120.44
2024-02-22T01:19:50.225Z,118.56
2024-02-22T01:20:50.278Z,118.81
2024-02-22T01:21:50.346Z,121.24
2024-02-22T01:22:50.466Z,119.02
2024-02-22T01:23:50.478Z,121.08
2024-02-22T01:24:50.536Z,120.05
2024-02-22T01:25:50.630Z,119.23
2024-02-22T01:26:50.663Z,120.92
2024-02-22T01:27:50.755Z,119.02
2024-02-22T01:28:50.871Z,118.98
2024-02-22T01:29:50.883Z,119.82
2024-02-22T01:30:50.921Z,120.40
2024-02-22T01:31:51.021Z,120.12
2024-02-22T01:32:51.154Z,119.15
2024-02-22T01:33:51.173Z,121.16
2024-02-22T01:34:51.118Z,121.11
2024-02-22T01:35:51.173Z,119.57
2024-02-22T01:36:51.228Z,121.41
2024-02-22T01:37:51.323Z,122.99
2024-02-22T01:38:51.345Z,121.94
2024-02-22T01:39:51.417Z,121.18
2024-02-22T01:40:51.481Z,123.07
2024-02-22T01:41:51.508Z,122.87
2024-02-22T01:42:51.596Z,123.90
2024-02-22T01:43:51.712Z,123.42
2024-02-22T01:44:51.694Z,122.95
2024-02-22T01:45:51.792Z,122.35
2024-02-22T01:46:51.930Z,123.62
2024-02-22T01:47:52.004Z,123.26
2024-02-22T01:48:52.100Z,123.68
2024-02-22T01:49:52.107Z,121.92
2024-02-22T01:50:52.098Z,123.07
2024-02-22T01:51:52.154Z,122.85
2024-02-22T01:52:52.283Z,121.94
2024-02-22T01:53:52.314Z,123.40
2024-02-22T01:54:52.383Z,122.56
2024-02-22T01:55:52.460Z,122.81
2024-02-22T01:56:52.439Z,122.47
2024-02-22T01:57:52.520Z,122.96
2024-02-22T01:58:52.571Z,123.49
2024-02-22T01:59:52.616Z,122.62
2024-02-22T02:00:52.673Z,122.13
2024-02-22T02:01:52.761Z,121.80
2024-02-22T02:02:52.792Z,121.80
2024-02-22T02:03:52.909Z,121.19
2024-02-22T02:04:52.973Z,121.73
2024-02-22T02:05:52.972Z,123.21
2024-02-22T02:06:52.962Z,122.60
2024-02-22T02:07:53.140Z,121.95
2024-02-22T02:08:53.087Z,121.89
2024-02-22T02:09:53.107Z,120.86
2024-02-22T02:10:53.197Z,121.83
2024-02-22T02:11:53.253Z,120.38
2024-02-22T02:12:53.344Z,121.59
2024-02-22T02:13:53.330Z,122.11
2024-02-22T02:14:53.343Z,120.71
2024-02-22T02:15:53.394Z,120.84
2024-02-22T02:16:53.453Z,119.75
2024-02-22T02:17:53.503Z,122.12
2024-02-22T02:18:53.556Z,120.50
2024-02-22T02:19:53.579Z,121.08
2024-02-22T02:20:53.600Z,119.45
2024-02-22T02:21:53.633Z,121.40
2024-02-22T02:22:53.754Z,120.00
2024-02-22T02:23:53.721Z,120.18
2024-02-22T02:24:53.780Z,121.15
2024-02-22T02:25:53.883Z,119.20
2024-02-22T02:26:53.866Z,121.77
2024-02-22T02:27:53.875Z,119.71
2024-02-22T02:28:53.917Z,119.17
2024-02-22T02:29:53.942Z,120.87
2024-02-22T02:30:53.970Z,119.73
2024-02-22T02:31:54.019Z,119.94
2024-02-22T02:32:54.081Z,121.65
2024-02-22T02:33:54.127Z,120.18
2024-02-22T02:34:54.189Z,120.88
2024-02-22T02:35:54.157Z,120.97
2024-02-22T02:36:54.178Z,121.46
2024-02-22T02:37:54.238Z,121.21
2024-02-22T02:38:54.209Z,120.73
2024-02-22T02:39:54.262Z,119.75
2024-02-22T02:40:54.297Z,120.69
2024-02-22T02:41:54.325Z,120.23
2024-02-22T02:42:54.334Z,122.39
2024-02-22T02:43:54.420Z,122.05
2024-02-22T02:44:54.396Z,120.52
2024-02-22T02:45:54.404Z,121.07
2024-02-22T02:46:54.486Z,119.36
2024-02-22T02:47:54.496Z,121.37
2024-02-22T02:48:54.540Z,121.79
2024-02-22T02:49:54.642Z,122.45
2024-02-22T02:50:54.568Z,120.96
2024-02-22T02:51:54.584Z,121.20
2024-02-22T02:52:54.910Z,120.81
2024-02-22T02:53:54.597Z,121.38
2024-02-22T02:54:54.635Z,121.06
2024-02-22T02:55:54.722Z,121.75
2024-02-22T02:56:54.690Z,121.96
2024-02-22T02:57:54.709Z,120.37
2024-02-22T02:58:54.851Z,121.95
2024-02-22T02:59:54.781Z,121.46
2024-02-22T03:00:54.797Z,121.02
2024-02-22T03:01:54.881Z,120.45
2024-02-22T03:02:54.842Z,120.24
2024-02-22T03:03:54.885Z,120.80
2024-02-22T03:04:54.913Z,120.89
2024-02-22T03:05:55.148Z,118.59
2024-02-22T03:06:54.887Z,119.05
2024-02-22T03:07:55.118Z,121.99
2024-02-22T03:08:54.942Z,119.71
2024-02-22T03:09:54.950Z,121.13
2024-02-22T03:10:55.058Z,121.83
2024-02-22T03:11:55.100Z,121.42
2024-02-22T03:12:55.061Z,120.26
2024-02-22T03:13:55.041Z,121.86
2024-02-22T03:14:55.064Z,120.24
2024-02-22T03:15:55.073Z,120.74
2024-02-22T03:16:55.116Z,120.80
2024-02-22T03:17:55.171Z,119.61
2024-02-22T03:18:55.135Z,119.44
2024-02-22T03:19:55.239Z,119.60
2024-02-22T03:20:55.166Z,119.47
2024-02-22T03:21:55.165Z,118.46
2024-02-22T03:22:55.191Z,117.97
2024-02-22T03:23:55.198Z,120.20
2024-02-22T03:24:55.183Z,119.38
2024-02-22T03:25:55.272Z,118.15
2024-02-22T03:26:55.339Z,118.71
2024-02-22T03:27:55.248Z,118.21
2024-02-22T03:28:55.300Z,117.87
2024-02-22T03:29:55.243Z,118.62
2024-02-22T03:30:55.280Z,117.51
2024-02-22T03:31:55.300Z,116.63
2024-02-22T03:32:55.363Z,118.14
2024-02-22T03:33:55.316Z,117.94
2024-02-22T03:34:55.370Z,117.59
2024-02-22T03:35:55.326Z,117.51
2024-02-22T03:36:55.344Z,117.92
2024-02-22T03:37:55.365Z,118.79
2024-02-22T03:38:55.330Z,119.38
2024-02-22T03:39:55.374Z,117.81
2024-02-22T03:40:55.493Z,117.54
2024-02-22T03:41:55.373Z,118.54
2024-02-22T03:42:55.386Z,118.40
2024-02-22T03:43:55.441Z,116.69
2024-02-22T03:44:55.388Z,117.88
2024-02-22T03:45:55.408Z,116.58
2024-02-22T03:46:55.451Z,117.13
2024-02-22T03:47:55.464Z,117.57
2024-02-22T03:48:55.549Z,117.47
2024-02-22T03:49:55.521Z,117.18
2024-02-22T03:50:55.475Z,118.06
2024-02-22T03:51:55.464Z,117.42
2024-02-22T03:52:55.525Z,116.42
2024-02-22T03:53:55.470Z,116.88
2024-02-22T03:54:55.509Z,117.12
2024-02-22T03:55:56.401Z,116.85
2024-02-22T03:56:55.502Z,117.10
2024-02-22T03:57:55.539Z,115.80
2024-02-22T03:58:55.514Z,117.51
2024-02-22T03:59:55.505Z,117.31
2024-02-22T04:00:55.532Z,117.84
2024-02-22T04:01:55.535Z,117.80
2024-02-22T04:02:55.506Z,116.74
2024-02-22T04:03:55.542Z,117.69
2024-02-22T04:04:55.676Z,116.68
2024-02-22T04:05:55.586Z,117.10
2024-02-22T04:06:55.609Z,117.41
2024-02-22T04:07:55.578Z,116.91
2024-02-22T04:08:55.500Z,115.97
2024-02-22T04:09:55.526Z,115.90
2024-02-22T04:10:55.599Z,115.53
2024-02-22T04:11:55.620Z,115.31
2024-02-22T04:12:55.511Z,114.14
2024-02-22T04:13:55.561Z,114.71
2024-02-22T04:14:55.505Z,115.00
2024-02-22T04:15:55.541Z,115.01
2024-02-22T04:16:55.544Z,113.37
2024-02-22T04:17:55.639Z,113.95
2024-02-22T04:18:55.640Z,113.17
2024-02-22T04:19:55.610Z,111.84
2024-02-22T04:20:55.530Z,114.42
2024-02-22T04:21:55.495Z,113.68
2024-02-22T04:22:55.567Z,112.90
2024-02-22T04:23:55.535Z,113.65
2024-02-22T04:24:55.535Z,112.12
2024-02-22T04:25:55.583Z,111.95
2024-02-22T04:26:55.535Z,111.58
2024-02-22T04:27:55.681Z,110.98
2024-02-22T04:28:55.539Z,112.45
2024-02-22T04:29:55.543Z,111.52
2024-02-22T04:30:55.522Z,112.60
2024-02-22T04:31:55.552Z,111.54
2024-02-22T04:32:55.633Z,112.21
2024-02-22T04:33:55.585Z,113.25
2024-02-22T04:34:55.620Z,111.44
2024-02-22T04:35:55.707Z,112.82
2024-02-22T04:36:55.585Z,111.01
2024-02-22T04:37:55.597Z,112.20
2024-02-22T04:38:55.596Z,114.43
2024-02-22T04:39:55.571Z,113.44
2024-02-22T04:40:55.648Z,113.68
2024-02-22T04:41:55.549Z,112.11
2024-02-22T04:42:55.539Z,112.16
2024-02-22T04:43:55.587Z,112.24
2024-02-22T04:44:55.555Z,112.10
2024-02-22T04:45:55.576Z,111.97
2024-02-22T04:46:55.621Z,111.12
2024-02-22T04:47:55.595Z,112.62
2024-02-22T04:48:55.562Z,110.98
2024-02-22T04:49:55.621Z,113.55
2024-02-22T04:50:55.571Z,110.22
2024-02-22T04:51:55.576Z,111.62
2024-02-22T04:52:55.587Z,110.60
2024-02-22T04:53:55.554Z,110.49
2024-02-22T04:54:55.549Z,110.61
2024-02-22T04:56:03.370Z,50.00
2024-02-22T04:57:03.312Z,50.00
2024-02-22T04:58:03.314Z,50.00
2024-02-22T04:59:03.355Z,50.00
2024-02-22T05:00:03.348Z,50.00
2024-02-22T05:01:03.428Z,51.26
2024-02-22T05:02:03.319Z,50.12
2024-02-22T05:03:03.335Z,50.00
2024-02-22T05:04:03.376Z,50.00
2024-02-22T05:05:03.566Z,52.98
2024-02-22T05:06:03.331Z,53.09
2024-02-22T05:07:03.329Z,52.36
2024-02-22T05:08:03.428Z,51.70
2024-02-22T05:09:03.310Z,54.96
2024-02-22T05:10:03.344Z,50.07
2024-02-22T05:11:03.390Z,50.00
2024-02-22T05:12:03.462Z,51.81
2024-02-22T05:13:03.355Z,53.39
2024-02-22T05:14:03.386Z,52.12
2024-02-22T05:15:03.447Z,51.76
2024-02-22T05:16:03.322Z,53.07
2024-02-22T05:17:03.410Z,51.25
2024-02-22T05:18:03.454Z,51.98
2024-02-22T05:19:03.411Z,52.56
2024-02-22T05:20:03.399Z,51.71
2024-02-22T05:21:03.437Z,51.06
2024-02-22T05:22:03.469Z,51.88
2024-02-22T05:23:03.569Z,52.76
2024-02-22T05:24:03.656Z,53.79
2024-02-22T05:25:03.703Z,51.50
2024-02-22T05:26:03.806Z,50.30
2024-02-22T05:27:03.808Z,51.76
2024-02-22T05:28:03.898Z,54.37
2024-02-22T05:29:03.955Z,52.44
2024-02-22T05:30:04.006Z,51.50
2024-02-22T05:31:04.067Z,53.16
2024-02-22T05:32:04.221Z,53.57
2024-02-22T05:33:04.231Z,51.45
2024-02-22T05:34:04.336Z,50.91
2024-02-22T05:35:04.404Z,51.98
2024-02-22T05:36:04.379Z,51.45
2024-02-22T05:37:04.433Z,51.58
2024-02-22T05:38:04.547Z,53.25
2024-02-22T05:39:04.560Z,52.65
2024-02-22T05:40:04.635Z,54.85
2024-02-22T05:41:04.784Z,54.12
2024-02-22T05:42:04.757Z,52.64
2024-02-22T05:43:04.823Z,50.88
2024-02-22T05:44:04.914Z,50.77
2024-02-22T05:45:04.897Z,50.00
2024-02-22T05:46:04.970Z,52.61
2024-02-22T05:47:05.057Z,52.45
2024-02-22T05:48:05.143Z,52.95
2024-02-22T05:49:05.227Z,51.90
2024-02-22T05:50:05.217Z,53.39
2024-02-22T05:51:05.267Z,52.64
2024-02-22T05:52:05.330Z,51.98
2024-02-22T05:53:05.375Z,52.42
2024-02-22T05:54:05.426Z,51.73
2024-02-22T05:55:05.440Z,52.48
2024-02-22T05:56:05.553Z,51.69
2024-02-22T05:57:05.539Z,50.46
2024-02-22T05:58:05.558Z,52.34
2024-02-22T05:59:05.624Z,51.06
2024-02-22T06:00:05.611Z,55.24
2024-02-22T06:01:28.215Z,51.09
2024-02-22T06:02:05.693Z,51.38
2024-02-22T06:03:10.159Z,52.61
2024-02-22T06:04:06.684Z,51.58
2024-02-22T06:05:05.699Z,52.94
2024-02-22T06:06:05.690Z,55.56
2024-02-22T06:07:05.681Z,57.55
2024-02-22T06:08:05.715Z,61.45
2024-02-22T06:09:05.637Z,58.97
2024-02-22T06:10:05.687Z,60.54
2024-02-22T06:11:05.741Z,56.12
2024-02-22T06:12:05.752Z,56.87
2024-02-22T06:13:05.662Z,56.11
2024-02-22T06:14:05.726Z,56.24
2024-02-22T06:15:05.686Z,53.56
2024-02-22T06:16:05.674Z,55.31
2024-02-22T06:17:05.726Z,56.60
2024-02-22T06:18:05.718Z,56.82
2024-02-22T06:19:05.699Z,56.34
2024-02-22T06:20:05.721Z,55.20
2024-02-22T06:21:05.678Z,56.33
2024-02-22T06:22:05.648Z,55.78
2024-02-22T06:23:05.681Z,56.01
2024-02-22T06:24:05.686Z,56.08
2024-02-22T06:25:05.657Z,57.96
2024-02-22T06:26:05.731Z,56.71
2024-02-22T06:27:05.674Z,56.65
2024-02-22T06:28:05.658Z,50.00
2024-02-22T06:29:05.708Z,50.00
2024-02-22T06:30:05.685Z,51.50
2024-02-22T06:31:05.691Z,50.00
2024-02-22T06:32:05.744Z,50.00
2024-02-22T06:34:06.123Z,52.94
2024-02-22T06:35:05.810Z,53.51
2024-02-22T06:36:05.821Z,50.24
2024-02-22T06:37:05.879Z,50.71
2024-02-22T06:38:06.030Z,50.83
2024-02-22T06:39:06.077Z,53.25
2024-02-22T06:40:06.039Z,50.31
2024-02-22T06:41:06.079Z,52.54
2024-02-22T06:42:06.158Z,55.62
2024-02-22T06:43:06.197Z,55.69
2024-02-22T06:44:06.611Z,59.47
2024-02-22T06:45:06.321Z,65.00
2024-02-22T06:46:28.896Z,68.50
2024-02-22T06:47:06.384Z,68.88
2024-02-22T06:48:06.431Z,71.35
2024-02-22T06:49:06.635Z,77.25
2024-02-22T06:50:06.439Z,84.84
2024-02-22T06:51:06.453Z,97.98
2024-02-22T06:52:06.415Z,109.04
2024-02-22T06:53:06.449Z,117.78
2024-02-22T06:54:06.631Z,123.56
2024-02-22T06:55:06.430Z,124.95
2024-02-22T06:56:06.480Z,131.34
2024-02-22T06:57:06.381Z,135.18
2024-02-22T06:58:06.419Z,139.31
2024-02-22T06:59:06.672Z,147.16
2024-02-22T07:00:07.692Z,151.21
2024-02-22T07:01:06.468Z,162.73
2024-02-22T07:02:06.507Z,169.71
2024-02-22T07:03:06.600Z,174.08
2024-02-22T07:04:06.642Z,175.84
2024-02-22T07:05:07.056Z,175.34
2024-02-22T07:06:06.453Z,177.76
2024-02-22T07:07:06.572Z,185.40
2024-02-22T07:08:06.579Z,192.52
2024-02-22T07:09:06.559Z,197.18
2024-02-22T07:10:06.598Z,197.95
2024-02-22T07:11:06.691Z,200.00
2024-02-22T07:12:06.794Z,199.53
2024-02-22T07:13:06.686Z,200.20
2024-02-22T07:14:06.885Z,198.56
2024-02-22T07:15:06.769Z,198.47
2024-02-22T07:16:06.733Z,197.62
2024-02-22T07:17:06.836Z,199.43
2024-02-22T07:18:06.912Z,198.36
2024-02-22T07:19:06.915Z,200.00
2024-02-22T07:20:06.907Z,199.42
2024-02-22T07:21:06.916Z,200.00
2024-02-22T07:22:06.934Z,198.91
2024-02-22T07:23:07.205Z,199.87
2024-02-22T07:24:06.972Z,186.54
2024-02-22T07:25:07.143Z,181.90
2024-02-22T07:26:07.104Z,181.52
2024-02-22T07:27:07.114Z,184.11
2024-02-22T07:28:07.143Z,181.55
2024-02-22T07:29:11.082Z,180.03
2024-02-22T07:30:08.211Z,180.04
2024-02-22T07:31:07.192Z,177.99
2024-02-22T07:32:07.273Z,177.43
2024-02-22T07:33:07.242Z,177.45
2024-02-22T07:34:07.268Z,179.70
2024-02-22T07:35:07.686Z,186.50
2024-02-22T07:36:09.802Z,191.15
2024-02-22T07:37:07.244Z,191.37
2024-02-22T07:38:07.324Z,191.77
2024-02-22T07:39:07.280Z,187.02
2024-02-22T07:40:07.649Z,173.67
2024-02-22T07:41:07.327Z,164.04
2024-02-22T07:42:07.203Z,152.68
2024-02-22T07:43:07.197Z,144.27
2024-02-22T07:44:10.794Z,142.50
2024-02-22T07:45:07.231Z,142.36
2024-02-22T07:46:07.235Z,141.16
2024-02-22T07:47:07.258Z,142.56
2024-02-22T07:48:07.314Z,144.90
2024-02-22T07:49:07.286Z,148.12
2024-02-22T07:50:07.249Z,151.09
2024-02-22T07:51:07.230Z,154.24
2024-02-22T07:52:07.240Z,158.72
2024-02-22T07:53:07.329Z,162.00
2024-02-22T07:54:07.250Z,165.34
2024-02-22T07:55:07.301Z,164.03
2024-02-22T07:56:07.329Z,160.91
2024-02-22T07:57:07.262Z,157.25
2024-02-22T07:58:07.275Z,153.20
2024-02-22T07:59:07.250Z,154.47
2024-02-22T08:00:07.252Z,157.28
2024-02-22T08:01:07.275Z,158.74
2024-02-22T08:02:07.279Z,159.71
2024-02-22T08:03:07.233Z,162.47
2024-02-22T08:04:07.268Z,165.84
2024-02-22T08:05:07.684Z,167.61
2024-02-22T08:06:07.267Z,170.26
2024-02-22T08:07:07.366Z,172.34
2024-02-22T08:08:07.288Z,172.73
2024-02-22T08:09:07.260Z,172.87
2024-02-22T08:10:07.298Z,170.33
2024-02-22T08:11:07.406Z,170.27
2024-02-22T08:12:07.338Z,163.85
2024-02-22T08:13:07.275Z,161.11
2024-02-22T08:14:07.310Z,160.44
2024-02-22T08:15:07.658Z,157.64
2024-02-22T08:16:07.301Z,157.22
2024-02-22T08:17:07.401Z,156.91
2024-02-22T08:18:07.339Z,154.46
2024-02-22T08:19:07.277Z,156.50
2024-02-22T08:20:07.473Z,154.31
2024-02-22T08:21:07.467Z,153.95
2024-02-22T08:22:07.285Z,153.27
2024-02-22T08:23:07.348Z,155.95
2024-02-22T08:24:07.276Z,159.86
2024-02-22T08:25:07.326Z,163.68
2024-02-22T08:26:07.337Z,168.32
2024-02-22T08:27:07.317Z,173.78
2024-02-22T08:28:08.057Z,179.15
2024-02-22T08:29:07.383Z,185.20
2024-02-22T08:30:07.457Z,190.64
2024-02-22T08:31:07.363Z,196.22
2024-02-22T08:32:07.411Z,198.83
2024-02-22T08:33:07.439Z,200.00
2024-02-22T08:34:07.748Z,199.53
2024-02-22T08:35:07.612Z,197.97
2024-02-22T08:36:08.582Z,198.04
2024-02-22T08:37:07.574Z,193.35
2024-02-22T08:38:07.615Z,179.63
2024-02-22T08:39:07.577Z,170.12
2024-02-22T08:40:19.877Z,165.04
2024-02-22T08:41:08.684Z,166.26
2024-02-22T08:42:07.567Z,166.39
2024-02-22T08:43:07.658Z,170.76
2024-02-22T08:44:07.608Z,175.09
2024-02-22T08:45:07.588Z,179.77
2024-02-22T08:46:07.606Z,184.09
2024-02-22T08:47:07.726Z,189.92
2024-02-22T08:48:07.727Z,196.66
2024-02-22T08:49:07.684Z,200.00
2024-02-22T08:50:07.665Z,200.00
2024-02-22T08:51:07.625Z,199.73
2024-02-22T08:52:08.557Z,199.36
2024-02-22T08:53:08.193Z,198.27
2024-02-22T08:54:08.562Z,196.21
2024-02-22T08:55:07.724Z,196.01
2024-02-22T08:56:07.781Z,195.71
2024-02-22T08:57:07.735Z,195.36
2024-02-22T08:58:07.773Z,193.91
2024-02-22T08:59:07.972Z,190.41
2024-02-22T09:00:07.898Z,187.88
2024-02-22T09:01:07.926Z,185.13
2024-02-22T09:02:07.906Z,184.02
2024-02-22T09:03:07.917Z,183.47
2024-02-22T09:04:07.995Z,183.44
2024-02-22T09:05:08.217Z,184.53
2024-02-22T09:06:08.181Z,184.77
2024-02-22T09:07:08.116Z,182.61
2024-02-22T09:08:08.223Z,182.37
2024-02-22T09:09:08.170Z,181.05
2024-02-22T09:10:08.177Z,176.96
2024-02-22T09:11:08.326Z,173.06
2024-02-22T09:12:09.186Z,169.61
2024-02-22T09:13:08.253Z,168.23
2024-02-22T09:14:08.326Z,165.53
2024-02-22T09:15:08.310Z,163.49
2024-02-22T09:16:08.366Z,165.21
2024-02-22T09:17:08.405Z,167.38
2024-02-22T09:18:08.502Z,169.14
2024-02-22T09:19:08.617Z,172.36
2024-02-22T09:20:09.143Z,176.47
2024-02-22T09:21:08.508Z,180.04
2024-02-22T09:22:08.504Z,183.14
2024-02-22T09:23:08.581Z,186.00
2024-02-22T09:24:08.537Z,187.71
2024-02-22T09:25:08.547Z,191.64
2024-02-22T09:26:08.712Z,193.23
2024-02-22T09:27:08.687Z,193.93
2024-02-22T09:28:08.756Z,196.77
2024-02-22T09:29:08.860Z,196.50
2024-02-22T09:30:08.893Z,199.23
2024-02-22T09:31:09.167Z,198.68
2024-02-22T09:32:09.084Z,196.77
2024-02-22T09:33:09.251Z,198.11
2024-02-22T09:34:09.192Z,195.57
2024-02-22T09:35:09.232Z,195.04
2024-02-22T09:36:09.821Z,194.10
2024-02-22T09:37:09.313Z,193.77
2024-02-22T09:38:09.418Z,193.79
2024-02-22T09:39:10.571Z,192.57
2024-02-22T09:40:09.520Z,192.67
2024-02-22T09:41:10.840Z,191.87
2024-02-22T09:42:09.581Z,192.25
2024-02-22T09:43:09.616Z,191.94
2024-02-22T09:44:09.697Z,189.02
2024-02-22T09:45:09.758Z,189.21
2024-02-22T09:46:09.801Z,190.41
2024-02-22T09:47:10.013Z,187.91
2024-02-22T09:48:09.976Z,187.18
2024-02-22T09:49:10.025Z,187.54
2024-02-22T09:50:10.031Z,187.41
2024-02-22T09:51:10.182Z,171.68
2024-02-22T09:52:10.092Z,138.59
2024-02-22T09:53:10.146Z,111.13
2024-02-22T09:54:10.116Z,90.63
2024-02-22T09:55:10.160Z,66.25
2024-02-22T09:56:10.242Z,51.69
2024-02-22T09:57:10.304Z,50.00
2024-02-22T09:58:10.274Z,50.00
2024-02-22T09:59:10.370Z,50.04
2024-02-22T10:00:10.404Z,50.65
2024-02-22T10:01:10.782Z,50.82
2024-02-22T10:02:10.473Z,53.70
2024-02-22T10:03:10.515Z,61.66
2024-02-22T10:04:10.470Z,70.57
2024-02-22T10:05:10.731Z,75.74
2024-02-22T10:06:10.777Z,80.99
2024-02-22T10:07:10.618Z,87.43
2024-02-22T10:08:10.738Z,90.88
2024-02-22T10:09:10.761Z,95.79
2024-02-22T10:10:10.849Z,100.72
2024-02-22T10:11:10.963Z,104.79
2024-02-22T10:12:11.259Z,108.95
2024-02-22T10:13:12.026Z,112.31
2024-02-22T10:14:11.135Z,115.15
2024-02-22T10:15:11.242Z,116.97
2024-02-22T10:16:11.195Z,120.61
2024-02-22T10:17:11.247Z,125.01
2024-02-22T10:18:11.383Z,126.83
2024-02-22T10:19:11.438Z,130.86
2024-02-22T10:20:11.935Z,133.11
2024-02-22T10:21:11.525Z,135.11
2024-02-22T10:22:11.529Z,138.23
2024-02-22T10:23:11.619Z,141.64
2024-02-22T10:24:11.580Z,144.25
2024-02-22T10:25:11.601Z,145.21
2024-02-22T10:26:11.735Z,146.07
2024-02-22T10:27:11.717Z,150.04
2024-02-22T10:28:11.721Z,152.36
2024-02-22T10:29:11.856Z,154.10
2024-02-22T10:30:11.844Z,155.46
2024-02-22T10:31:12.202Z,154.14
2024-02-22T10:32:11.930Z,152.72
2024-02-22T10:33:11.983Z,156.58
2024-02-22T10:34:12.160Z,156.80
2024-02-22T10:35:12.061Z,153.91
2024-02-22T10:36:12.004Z,155.82
2024-02-22T10:37:12.211Z,134.32
2024-02-22T10:38:12.141Z,127.83
2024-02-22T10:39:12.233Z,118.07
2024-02-22T10:40:12.310Z,116.02
2024-02-22T10:41:12.796Z,91.06
2024-02-22T10:42:12.392Z,75.22
2024-02-22T10:43:12.390Z,55.30
2024-02-22T10:44:12.417Z,43.60
2024-02-22T10:45:12.415Z,35.10
2024-02-22T10:46:12.458Z,32.53
2024-02-22T10:47:12.785Z,36.31
2024-02-22T10:48:12.595Z,40.57
2024-02-22T10:49:12.634Z,46.34
2024-02-22T10:50:12.681Z,50.65
2024-02-22T10:51:12.642Z,51.03
2024-02-22T10:52:13.238Z,51.35
2024-02-22T10:53:12.771Z,52.80
2024-02-22T10:54:12.833Z,56.61
2024-02-22T10:55:12.823Z,59.19
2024-02-22T10:56:12.877Z,62.83
2024-02-22T10:57:12.901Z,65.23
2024-02-22T10:58:12.980Z,73.92
2024-02-22T10:59:13.065Z,79.55
2024-02-22T11:00:13.024Z,87.22
2024-02-22T11:01:13.059Z,92.59
2024-02-22T11:02:13.121Z,97.89
2024-02-22T11:03:13.138Z,101.76
2024-02-22T11:04:13.284Z,108.53
2024-02-22T11:05:13.477Z,116.04
2024-02-22T11:06:13.413Z,121.89
2024-02-22T11:07:13.415Z,128.75
2024-02-22T11:08:13.497Z,134.62
2024-02-22T11:09:14.122Z,140.53
2024-02-22T11:10:13.593Z,145.49
2024-02-22T11:11:13.673Z,149.91
2024-02-22T11:12:13.663Z,151.86
2024-02-22T11:13:13.666Z,157.68
2024-02-22T11:14:13.790Z,161.12
2024-02-22T11:15:13.730Z,162.43
2024-02-22T11:16:13.798Z,165.22
2024-02-22T11:17:14.345Z,167.78
2024-02-22T11:18:14.001Z,169.63
2024-02-22T11:19:13.935Z,172.33
2024-02-22T11:20:13.959Z,177.45
2024-02-22T11:21:14.042Z,180.75
2024-02-22T11:22:14.221Z,184.75
2024-02-22T11:23:14.124Z,186.78
2024-02-22T11:24:14.052Z,189.15
2024-02-22T11:25:13.968Z,193.13
2024-02-22T11:26:14.047Z,195.88
2024-02-22T11:27:14.232Z,194.73
2024-02-22T11:28:13.991Z,193.47
2024-02-22T11:29:14.056Z,193.84
2024-02-22T11:30:14.057Z,193.26
2024-02-22T11:31:14.019Z,194.66
2024-02-22T11:32:14.297Z,196.11
2024-02-22T11:33:14.212Z,196.22
2024-02-22T11:34:14.220Z,196.85
2024-02-22T11:35:14.226Z,197.37
2024-02-22T11:36:14.272Z,191.51
2024-02-22T11:37:14.810Z,181.00
2024-02-22T11:38:14.409Z,173.17
2024-02-22T11:39:14.363Z,168.37
2024-02-22T11:40:14.410Z,163.28
2024-02-22T11:41:14.467Z,161.99
2024-02-22T11:42:14.736Z,162.48
2024-02-22T11:43:14.479Z,161.31
2024-02-22T11:44:14.589Z,157.72
2024-02-22T11:45:14.581Z,159.04
2024-02-22T11:46:14.589Z,156.48
2024-02-22T11:47:14.662Z,154.78
2024-02-22T11:48:14.692Z,156.62
2024-02-22T11:49:14.711Z,157.63
2024-02-22T11:50:14.785Z,157.78
2024-02-22T11:51:15.257Z,157.21
2024-02-22T11:52:14.763Z,156.77
2024-02-22T11:53:14.820Z,157.96
2024-02-22T11:54:14.840Z,158.63
2024-02-22T11:55:14.822Z,159.00
2024-02-22T11:56:14.856Z,159.21
2024-02-22T11:57:15.285Z,160.89
2024-02-22T11:58:14.908Z,162.39
2024-02-22T11:59:15.010Z,161.95
2024-02-22T12:00:14.935Z,162.82
2024-02-22T12:01:15.056Z,164.16
2024-02-22T12:02:15.072Z,165.04
2024-02-22T12:03:15.425Z,165.14
2024-02-22T12:04:14.980Z,166.09
2024-02-22T12:05:15.072Z,166.23
2024-02-22T12:06:15.193Z,166.52
2024-02-22T12:07:15.275Z,168.21
2024-02-22T12:08:15.059Z,168.86
2024-02-22T12:09:15.436Z,169.70
2024-02-22T12:10:15.148Z,169.61
2024-02-22T12:11:15.224Z,171.54
2024-02-22T12:12:15.248Z,171.76
2024-02-22T12:13:15.269Z,171.54
2024-02-22T12:14:15.273Z,171.79
2024-02-22T12:15:17.233Z,172.75
2024-02-22T12:16:15.203Z,172.79
2024-02-22T12:17:15.187Z,172.90
2024-02-22T12:18:15.311Z,173.25
2024-02-22T12:19:15.324Z,173.62
2024-02-22T12:20:15.189Z,174.59
2024-02-22T12:21:16.128Z,175.02
2024-02-22T12:22:15.258Z,174.13
2024-02-22T12:23:15.209Z,173.86
2024-02-22T12:24:15.182Z,174.55
2024-02-22T12:25:15.197Z,173.58
2024-02-22T12:26:15.215Z,173.36
2024-02-22T12:27:17.333Z,171.67
2024-02-22T12:28:15.193Z,173.84
2024-02-22T12:29:15.228Z,173.17
2024-02-22T12:30:15.201Z,175.02
2024-02-22T12:31:15.171Z,172.33
2024-02-22T12:32:15.319Z,171.14
2024-02-22T12:33:16.558Z,171.23
2024-02-22T12:34:15.232Z,171.30
2024-02-22T12:35:15.216Z,171.65